Time;durP1;ratioP1;P1;durP2;ratioP2;P2;SDS_P1;SDS_P2;PMS_P1;PMS_P2;Temp;Humidity;BMP_temperature;BMP_pressure;BME280_temperature;BME280_humidity;BME280_pressure;Samples;Min_cycle;Max_cycle;Signal;HPM_P1;HPM_P2
2024/02/29 00:00:16;;;;;;;24.45;15.32;;;11.60;96.50;;;;;;5068064;28;20115;-70
2024/02/29 00:02:45;;;;;;;21.83;14.98;;;11.60;97.00;;;;;;5087676;28;20036;-70
2024/02/29 00:05:12;;;;;;;25.85;15.35;;;11.80;96.40;;;;;;5053645;28;20479;-71
2024/02/29 00:07:42;;;;;;;22.00;16.08;;;11.60;96.20;;;;;;5084324;28;20446;-72
2024/02/29 00:10:14;;;;;;;24.10;15.15;;;11.50;97.00;;;;;;5068050;28;20114;-71
2024/02/29 00:12:42;;;;;;;21.15;14.63;;;11.70;96.70;;;;;;5071575;28;20036;-68
2024/02/29 00:15:12;;;;;;;20.95;14.65;;;11.80;96.50;;;;;;5061864;28;20036;-70
2024/02/29 00:17:40;;;;;;;21.15;14.57;;;11.90;96.10;;;;;;5084102;28;20040;-72
2024/02/29 00:20:09;;;;;;;25.10;15.45;;;11.90;96.20;;;;;;5081656;28;20048;-72
2024/02/29 00:22:36;;;;;;;20.63;14.70;;;11.70;96.30;;;;;;5085035;28;20028;-71
2024/02/29 00:25:04;;;;;;;25.77;16.83;;;11.50;96.90;;;;;;5084461;28;20116;-70
2024/02/29 00:27:32;;;;;;;26.35;15.20;;;11.50;97.00;;;;;;5085984;28;20036;-69
2024/02/29 00:29:59;;;;;;;20.95;14.90;;;11.50;97.20;;;;;;5050072;28;20032;-70
2024/02/29 00:32:28;;;;;;;23.67;15.32;;;11.30;97.00;;;;;;5079462;28;20048;-69
2024/02/29 00:34:56;;;;;;;21.55;15.27;;;11.10;97.50;;;;;;5071046;28;20036;-70
2024/02/29 00:37:24;;;;;;;21.50;14.90;;;11.20;97.80;;;;;;5067777;28;20777;-70
2024/02/29 00:39:51;;;;;;;22.35;14.13;;;11.20;97.80;;;;;;5054181;28;20044;-70
2024/02/29 00:42:21;;;;;;;20.67;14.93;;;11.30;97.40;;;;;;5068973;28;20067;-70
2024/02/29 00:44:49;;;;;;;24.13;15.38;;;11.30;97.30;;;;;;5049061;28;20090;-70
2024/02/29 00:47:16;;;;;;;25.23;15.00;;;11.20;97.70;;;;;;5085445;28;20046;-76
2024/02/29 00:49:43;;;;;;;22.02;15.10;;;11.30;97.60;;;;;;5088395;28;20059;-70
2024/02/29 00:52:11;;;;;;;23.88;15.68;;;11.20;97.70;;;;;;5088699;28;20503;-70
2024/02/29 00:54:39;;;;;;;20.90;14.10;;;11.10;97.90;;;;;;5102069;28;20428;-71
2024/02/29 00:57:06;;;;;;;23.63;14.05;;;11.10;98.10;;;;;;5088515;28;20498;-70
2024/02/29 00:59:34;;;;;;;25.15;16.13;;;11.10;98.20;;;;;;5105647;28;20032;-70
2024/02/29 01:02:03;;;;;;;25.40;15.63;;;11.10;98.20;;;;;;5085041;28;20071;-70
2024/02/29 01:04:30;;;;;;;23.50;15.15;;;11.00;98.30;;;;;;5090975;28;20043;-71
2024/02/29 01:06:58;;;;;;;21.48;15.65;;;11.00;98.40;;;;;;5106783;28;20036;-70
2024/02/29 01:09:29;;;;;;;23.23;15.15;;;11.00;98.60;;;;;;5101292;28;20502;-69
2024/02/29 01:11:56;;;;;;;21.15;15.23;;;11.00;98.70;;;;;;5074135;28;20036;-71
2024/02/29 01:14:24;;;;;;;20.73;15.05;;;11.20;98.60;;;;;;5079956;28;20063;-71
2024/02/29 01:16:53;;;;;;;22.27;15.30;;;11.40;98.20;;;;;;5119783;27;20048;-72
2024/02/29 01:19:21;;;;;;;23.35;16.13;;;11.60;97.70;;;;;;5105366;28;20044;-71
2024/02/29 01:21:48;;;;;;;22.73;14.68;;;11.80;97.30;;;;;;5104636;28;20071;-72
2024/02/29 01:24:15;;;;;;;22.42;15.15;;;11.80;96.90;;;;;;5101802;28;20093;-72
2024/02/29 01:26:43;;;;;;;23.58;15.60;;;11.90;96.80;;;;;;5104098;28;20036;-71
2024/02/29 01:29:10;;;;;;;20.63;15.55;;;11.80;96.60;;;;;;5088008;28;20383;-71
2024/02/29 01:31:37;;;;;;;22.50;15.40;;;11.50;97.20;;;;;;5110833;28;20040;-71
2024/02/29 01:34:04;;;;;;;20.95;15.13;;;11.70;97.20;;;;;;5109140;28;20031;-71
2024/02/29 01:36:32;;;;;;;22.10;15.52;;;11.80;97.00;;;;;;5106670;28;20041;-71
2024/02/29 01:38:59;;;;;;;25.45;15.30;;;11.90;96.80;;;;;;5110720;28;20042;-70
2024/02/29 01:41:26;;;;;;;21.50;15.30;;;11.90;96.70;;;;;;5092620;28;20063;-70
2024/02/29 01:43:54;;;;;;;23.23;14.95;;;11.90;96.80;;;;;;5110337;28;20076;-69
2024/02/29 01:46:23;;;;;;;22.63;14.35;;;11.90;96.70;;;;;;5086424;28;20058;-71
2024/02/29 01:48:51;;;;;;;21.45;15.27;;;11.80;96.70;;;;;;5108844;28;20040;-70
2024/02/29 01:51:19;;;;;;;23.55;15.23;;;11.80;96.80;;;;;;5113055;28;20047;-70
2024/02/29 01:53:46;;;;;;;21.42;14.68;;;11.90;96.80;;;;;;5109526;28;20135;-70
2024/02/29 01:56:14;;;;;;;19.40;14.32;;;11.90;96.80;;;;;;5110824;28;20055;-71
2024/02/29 01:58:42;;;;;;;20.23;14.45;;;11.60;97.20;;;;;;5093643;28;20035;-70
2024/02/29 02:01:09;;;;;;;27.48;15.60;;;11.50;97.40;;;;;;5090829;28;20043;-71
2024/02/29 02:03:38;;;;;;;22.40;15.40;;;11.30;97.80;;;;;;5090773;28;20143;-70
2024/02/29 02:06:05;;;;;;;21.23;14.55;;;11.40;97.80;;;;;;5112380;28;20043;-70
2024/02/29 02:08:33;;;;;;;26.58;16.08;;;11.20;98.10;;;;;;5092098;28;20067;-71
2024/02/29 02:11:00;;;;;;;21.92;15.45;;;11.10;98.50;;;;;;5090369;28;20048;-71
2024/02/29 02:13:28;;;;;;;24.80;15.93;;;11.00;98.60;;;;;;5108412;28;20067;-71
2024/02/29 02:15:55;;;;;;;23.13;15.48;;;11.20;98.60;;;;;;5106546;28;20059;-72
2024/02/29 02:18:23;;;;;;;23.90;15.30;;;11.10;98.60;;;;;;5110489;28;20071;-70
2024/02/29 02:20:50;;;;;;;24.73;16.45;;;11.10;98.60;;;;;;5111135;28;20127;-72
2024/02/29 02:23:17;;;;;;;24.30;15.30;;;11.20;98.60;;;;;;5109153;28;20119;-72
2024/02/29 02:25:44;;;;;;;23.30;16.35;;;11.30;98.30;;;;;;5091683;28;20040;-71
2024/02/29 02:28:12;;;;;;;25.02;15.70;;;11.40;98.40;;;;;;5111782;28;20036;-71
2024/02/29 02:30:40;;;;;;;22.17;14.98;;;11.50;98.10;;;;;;5106116;28;20032;-72
2024/02/29 02:33:09;;;;;;;21.90;14.35;;;11.70;97.80;;;;;;5093223;28;20119;-69
2024/02/29 02:35:36;;;;;;;26.80;15.18;;;11.50;97.80;;;;;;5109015;28;20035;-70
2024/02/29 02:38:04;;;;;;;23.30;14.40;;;11.30;98.10;;;;;;5088255;28;20053;-70
2024/02/29 02:40:31;;;;;;;18.40;14.77;;;11.40;98.40;;;;;;5113067;28;20044;-70
2024/02/29 02:42:59;;;;;;;22.00;14.07;;;11.50;98.00;;;;;;5090025;28;20032;-70
2024/02/29 02:45:26;;;;;;;21.95;15.73;;;11.60;98.00;;;;;;5112218;28;20144;-70
2024/02/29 02:47:54;;;;;;;21.30;14.43;;;11.60;97.70;;;;;;5091698;28;20055;-70
2024/02/29 02:50:22;;;;;;;22.88;14.43;;;11.60;97.60;;;;;;5074015;28;20055;-69
2024/02/29 02:52:49;;;;;;;21.77;13.35;;;11.70;97.60;;;;;;5107543;28;20042;-69
2024/02/29 02:55:16;;;;;;;19.83;14.15;;;11.70;97.50;;;;;;5106054;28;20036;-69
2024/02/29 02:57:44;;;;;;;18.60;14.15;;;11.70;97.30;;;;;;5110934;28;20038;-69
2024/02/29 03:00:12;;;;;;;19.45;14.18;;;11.50;97.90;;;;;;5107289;28;20048;-69
2024/02/29 03:02:40;;;;;;;20.10;13.57;;;11.20;98.50;;;;;;5109608;28;20037;-68
2024/02/29 03:05:09;;;;;;;22.63;15.48;;;11.00;99.10;;;;;;5107926;28;20036;-70
2024/02/29 03:07:38;;;;;;;21.58;15.60;;;10.90;99.50;;;;;;5111807;28;20036;-70
2024/02/29 03:10:08;;;;;;;21.77;15.02;;;10.80;99.90;;;;;;5105896;28;20044;-71
2024/02/29 03:12:39;;;;;;;;;;;10.70;99.90;;;;;;5108935;28;20046;-70
2024/02/29 03:15:07;;;;;;;20.98;14.73;;;10.90;99.90;;;;;;5111784;28;20025;-68
2024/02/29 03:17:34;;;;;;;21.52;14.63;;;11.20;99.80;;;;;;5108931;28;20421;-70
2024/02/29 03:20:05;;;;;;;19.35;13.80;;;11.30;99.20;;;;;;5110672;28;20043;-69
2024/02/29 03:22:33;;;;;;;18.58;13.93;;;11.10;99.60;;;;;;5085827;28;20530;-70
2024/02/29 03:25:00;;;;;;;19.02;14.27;;;11.20;99.50;;;;;;5086728;28;20035;-69
2024/02/29 03:27:27;;;;;;;19.60;13.75;;;11.30;99.20;;;;;;5107766;28;20039;-70
2024/02/29 03:29:54;;;;;;;19.20;13.65;;;11.40;99.20;;;;;;5111289;28;20039;-70
2024/02/29 03:32:22;;;;;;;20.23;14.05;;;11.40;99.10;;;;;;5104149;28;20445;-69
2024/02/29 03:34:50;;;;;;;18.33;12.82;;;11.50;99.20;;;;;;5110090;28;20035;-68
2024/02/29 03:37:18;;;;;;;19.25;13.77;;;11.60;98.90;;;;;;5107614;28;20055;-70
2024/02/29 03:39:45;;;;;;;20.55;14.15;;;11.50;98.70;;;;;;5106973;28;20133;-70
2024/02/29 03:42:12;;;;;;;21.38;14.13;;;11.50;98.90;;;;;;5110691;28;20114;-68
2024/02/29 03:44:45;;;;;;;19.27;13.52;;;11.50;98.80;;;;;;5103851;28;20364;-71
2024/02/29 03:47:12;;;;;;;20.20;13.60;;;11.50;98.70;;;;;;5107513;28;20122;-69
2024/02/29 03:49:40;;;;;;;23.20;14.25;;;11.60;98.70;;;;;;5109148;28;20047;-69
2024/02/29 03:52:07;;;;;;;22.65;13.57;;;11.50;98.60;;;;;;5108885;28;20050;-70
2024/02/29 03:54:34;;;;;;;21.75;15.15;;;11.40;99.00;;;;;;5106866;28;20075;-69
2024/02/29 03:57:02;;;;;;;27.05;14.98;;;11.50;98.90;;;;;;5086852;28;20066;-69
2024/02/29 03:59:31;;;;;;;21.80;14.68;;;11.60;98.80;;;;;;5109884;28;20074;-71
2024/02/29 04:01:59;;;;;;;18.70;13.73;;;11.60;98.60;;;;;;5103427;28;20560;-71
2024/02/29 04:04:28;;;;;;;18.63;13.68;;;11.60;98.50;;;;;;5107613;28;20046;-69
2024/02/29 04:06:56;;;;;;;20.77;14.38;;;11.60;98.50;;;;;;5109863;28;20050;-69
2024/02/29 04:09:25;;;;;;;21.90;14.05;;;11.60;98.60;;;;;;5104637;28;20040;-70
2024/02/29 04:11:53;;;;;;;17.45;12.73;;;11.70;98.50;;;;;;5107843;28;20524;-69
2024/02/29 04:14:20;;;;;;;19.17;13.55;;;11.30;99.30;;;;;;5089862;28;20051;-69
2024/02/29 04:16:47;;;;;;;23.02;13.80;;;11.40;99.30;;;;;;5107868;28;20039;-69
2024/02/29 04:19:16;;;;;;;25.27;14.75;;;11.50;99.00;;;;;;5108414;28;20059;-70
2024/02/29 04:21:45;;;;;;;20.92;14.20;;;11.50;98.90;;;;;;5110278;28;20043;-70
2024/02/29 04:24:12;;;;;;;21.08;14.98;;;11.50;98.90;;;;;;5104226;28;20036;-70
2024/02/29 04:26:39;;;;;;;24.67;13.73;;;11.50;99.00;;;;;;5110040;28;20513;-71
2024/02/29 04:29:07;;;;;;;25.30;14.40;;;11.60;98.90;;;;;;5092145;28;20406;-71
2024/02/29 04:31:34;;;;;;;21.20;14.20;;;11.70;98.80;;;;;;5099402;28;20036;-70
2024/02/29 04:34:18;;;;;;;19.48;13.77;;;11.70;98.80;;;;;;5103436;28;20032;-70
2024/02/29 04:36:46;;;;;;;20.08;13.63;;;11.60;98.90;;;;;;5103487;28;20036;-72
2024/02/29 04:39:13;;;;;;;22.48;13.45;;;11.60;98.80;;;;;;5088328;28;20116;-70
2024/02/29 04:41:40;;;;;;;20.63;14.40;;;11.60;98.80;;;;;;5103193;28;20454;-71
2024/02/29 04:44:08;;;;;;;20.73;14.10;;;11.60;98.70;;;;;;5114458;27;20050;-71
2024/02/29 04:46:35;;;;;;;21.55;13.23;;;11.70;98.70;;;;;;5111194;27;20387;-72
2024/02/29 04:49:02;;;;;;;25.50;15.27;;;11.70;98.60;;;;;;5090558;28;20050;-70
2024/02/29 04:51:29;;;;;;;18.75;14.43;;;11.30;99.20;;;;;;5105439;28;20464;-70
2024/02/29 04:53:57;;;;;;;23.52;14.20;;;11.00;99.90;;;;;;5096386;28;20071;-70
2024/02/29 04:56:24;;;;;;;24.13;14.60;;;11.10;99.90;;;;;;5098239;28;20043;-71
2024/02/29 04:58:51;;;;;;;25.60;14.05;;;11.40;99.90;;;;;;5112938;28;20027;-69
2024/02/29 05:01:18;;;;;;;18.42;13.63;;;11.50;99.90;;;;;;5089653;28;20096;-70
2024/02/29 05:03:46;;;;;;;21.45;13.77;;;11.60;99.50;;;;;;5105421;28;20034;-71
2024/02/29 05:06:16;;;;;;;19.33;14.27;;;11.70;99.30;;;;;;5103983;28;20059;-71
2024/02/29 05:08:44;;;;;;;22.80;15.00;;;11.70;99.40;;;;;;5101322;28;20042;-71
2024/02/29 05:11:12;;;;;;;16.95;13.68;;;11.70;99.70;;;;;;5099177;28;20146;-71
2024/02/29 05:13:40;;;;;;;19.88;13.90;;;11.70;99.60;;;;;;5100232;28;20036;-70
2024/02/29 05:16:07;;;;;;;20.35;14.40;;;11.60;99.90;;;;;;5104068;28;20408;-69
2024/02/29 05:18:35;;;;;;;20.42;14.27;;;11.60;99.90;;;;;;5091781;28;20036;-68
2024/02/29 05:21:02;;;;;;;21.77;13.80;;;11.50;99.90;;;;;;5101174;28;20054;-70
2024/02/29 05:23:29;;;;;;;21.73;13.77;;;11.50;99.90;;;;;;5088595;28;20120;-71
2024/02/29 05:25:57;;;;;;;18.75;14.15;;;11.50;99.90;;;;;;5090097;28;20035;-70
2024/02/29 05:28:25;;;;;;;19.35;13.63;;;11.60;99.90;;;;;;5105628;28;20073;-68
2024/02/29 05:30:52;;;;;;;27.33;15.05;;;11.50;99.90;;;;;;5115255;28;20032;-71
2024/02/29 05:33:20;;;;;;;24.38;14.82;;;11.40;99.90;;;;;;5110757;28;20041;-72
2024/02/29 05:35:50;;;;;;;21.67;13.95;;;11.50;99.90;;;;;;5076750;28;20052;-72
2024/02/29 05:38:18;;;;;;;18.30;14.30;;;11.60;99.90;;;;;;5081814;28;20495;-72
2024/02/29 05:40:45;;;;;;;24.38;14.52;;;11.60;99.90;;;;;;5101295;28;20031;-71
2024/02/29 05:43:14;;;;;;;24.15;14.40;;;11.70;99.90;;;;;;5104863;28;20051;-71
2024/02/29 05:45:42;;;;;;;21.65;14.57;;;11.80;99.90;;;;;;5100954;28;20058;-70
2024/02/29 05:48:09;;;;;;;20.35;14.38;;;11.80;99.90;;;;;;5095892;28;20039;-71
2024/02/29 05:50:37;;;;;;;20.13;14.65;;;11.80;99.90;;;;;;5100059;28;20453;-69
2024/02/29 05:53:04;;;;;;;22.55;15.07;;;11.80;99.90;;;;;;5107478;28;20092;-72
2024/02/29 05:55:32;;;;;;;23.17;14.90;;;11.90;99.90;;;;;;5094791;28;20048;-69
2024/02/29 05:57:59;;;;;;;21.05;14.85;;;11.80;99.90;;;;;;5079833;28;20043;-71
2024/02/29 06:00:26;;;;;;;22.67;15.15;;;11.80;99.90;;;;;;5103483;28;20115;-71
2024/02/29 06:02:55;;;;;;;20.67;13.60;;;11.60;99.90;;;;;;5099874;28;20457;-70
2024/02/29 06:05:22;;;;;;;27.27;16.42;;;11.50;99.90;;;;;;5103688;28;20038;-69
2024/02/29 06:07:49;;;;;;;27.15;17.25;;;11.20;99.90;;;;;;5107812;27;20119;-73
2024/02/29 06:10:19;;;;;;;24.58;17.30;;;11.30;99.90;;;;;;5101439;27;20371;-72
2024/02/29 06:12:46;;;;;;;27.73;17.98;;;11.20;99.90;;;;;;5091076;28;20032;-69
2024/02/29 06:15:14;;;;;;;30.15;17.15;;;11.50;99.90;;;;;;5103463;28;20044;-70
2024/02/29 06:17:41;;;;;;;28.88;20.17;;;11.70;99.90;;;;;;5087959;28;20036;-70
2024/02/29 06:20:11;;;;;;;25.67;17.85;;;11.80;99.90;;;;;;5088340;28;20053;-70
2024/02/29 06:22:40;;;;;;;22.70;15.77;;;12.00;99.90;;;;;;5103584;28;20042;-71
2024/02/29 06:25:10;;;;;;;24.30;15.65;;;12.10;99.90;;;;;;5109000;28;20040;-70
2024/02/29 06:27:38;;;;;;;;;;;12.30;99.90;;;;;;5094398;28;20043;-72
2024/02/29 06:30:08;;;;;;;25.33;14.88;;;12.30;99.70;;;;;;5114008;27;19939;-70
2024/02/29 06:32:35;;;;;;;21.80;14.40;;;12.20;99.60;;;;;;5108231;27;20031;-69
2024/02/29 06:35:03;;;;;;;23.42;15.27;;;12.20;99.90;;;;;;5105622;28;20039;-72
2024/02/29 06:37:31;;;;;;;22.83;16.27;;;12.20;99.80;;;;;;5089172;28;20524;-73
2024/02/29 06:39:58;;;;;;;72.57;44.25;;;12.20;99.90;;;;;;5104890;28;20043;-71
2024/02/29 06:42:26;;;;;;;229.85;129.82;;;12.30;99.90;;;;;;5104929;28;20384;-70
2024/02/29 06:44:53;;;;;;;42.88;32.13;;;12.40;99.90;;;;;;5106549;28;20093;-71
2024/02/29 06:47:21;;;;;;;32.13;21.17;;;12.40;99.60;;;;;;5111586;28;20038;-73
2024/02/29 06:49:48;;;;;;;31.15;18.75;;;12.50;99.80;;;;;;5094708;28;20097;-71
2024/02/29 06:52:16;;;;;;;27.63;16.23;;;12.50;99.50;;;;;;5110705;28;20444;-72
2024/02/29 06:54:45;;;;;;;25.58;15.80;;;12.40;99.80;;;;;;5093922;28;20052;-70
2024/02/29 06:57:12;;;;;;;23.80;15.93;;;12.40;99.60;;;;;;5106314;28;20070;-72
2024/02/29 06:59:39;;;;;;;26.83;15.95;;;12.20;99.30;;;;;;5092232;28;20446;-69
2024/02/29 07:02:06;;;;;;;33.17;16.33;;;12.40;99.70;;;;;;5108217;28;20040;-69
2024/02/29 07:04:35;;;;;;;27.00;15.48;;;12.40;99.30;;;;;;5109373;28;20039;-70
2024/02/29 07:07:04;;;;;;;26.83;14.60;;;12.40;98.90;;;;;;5109758;28;20135;-69
2024/02/29 07:09:31;;;;;;;24.05;15.05;;;12.60;99.10;;;;;;5110711;28;20045;-70
2024/02/29 07:11:58;;;;;;;30.27;15.65;;;12.50;98.90;;;;;;5111696;28;20038;-72
2024/02/29 07:14:27;;;;;;;27.85;15.25;;;12.50;98.90;;;;;;5108818;28;20372;-71
2024/02/29 07:16:54;;;;;;;27.35;14.80;;;12.50;98.90;;;;;;5108038;28;20038;-73
2024/02/29 07:19:22;;;;;;;32.17;16.30;;;12.40;98.90;;;;;;5108514;28;20040;-70
2024/02/29 07:21:49;;;;;;;28.60;15.35;;;12.30;99.20;;;;;;5092711;28;20043;-73
2024/02/29 07:24:16;;;;;;;26.75;14.20;;;12.10;99.50;;;;;;5089154;28;20042;-70
2024/02/29 07:26:45;;;;;;;28.60;15.75;;;12.20;99.70;;;;;;5108673;28;20368;-71
2024/02/29 07:29:12;;;;;;;24.33;14.82;;;12.10;99.90;;;;;;5107030;28;20035;-70
2024/02/29 07:31:41;;;;;;;29.23;17.88;;;12.20;99.90;;;;;;5110145;28;20039;-71
2024/02/29 07:34:10;;;;;;;25.02;16.50;;;11.90;99.90;;;;;;5105872;28;20047;-73
2024/02/29 07:36:38;;;;;;;25.55;16.75;;;12.00;99.90;;;;;;5103277;28;20032;-71
2024/02/29 07:39:07;;;;;;;25.60;16.38;;;12.20;99.90;;;;;;5104737;28;20085;-71
2024/02/29 07:41:34;;;;;;;24.35;16.58;;;12.40;99.80;;;;;;5108100;28;20137;-72
2024/02/29 07:44:02;;;;;;;25.05;17.60;;;12.50;99.50;;;;;;5110771;28;20113;-73
2024/02/29 07:46:29;;;;;;;24.00;16.63;;;12.60;99.40;;;;;;5106868;28;20182;-72
2024/02/29 07:48:57;;;;;;;27.90;17.52;;;12.70;99.10;;;;;;5104192;28;20119;-72
2024/02/29 07:51:24;;;;;;;27.40;17.65;;;12.70;98.90;;;;;;5076343;28;20036;-71
2024/02/29 07:53:52;;;;;;;27.02;17.38;;;12.60;98.80;;;;;;5091319;28;20055;-72
2024/02/29 07:56:19;;;;;;;29.40;17.25;;;12.20;99.70;;;;;;5107277;28;20043;-71
2024/02/29 07:58:46;;;;;;;28.70;16.25;;;12.20;99.90;;;;;;5107060;28;20035;-72
2024/02/29 08:01:14;;;;;;;25.45;16.23;;;12.20;99.90;;;;;;5109476;28;20089;-71
2024/02/29 08:03:42;;;;;;;24.35;14.85;;;12.50;99.70;;;;;;5105271;28;20123;-70
2024/02/29 08:06:09;;;;;;;22.90;14.07;;;12.50;99.30;;;;;;5089210;28;20043;-72
2024/02/29 08:08:38;;;;;;;24.27;14.30;;;12.50;99.00;;;;;;5107414;28;20027;-70
2024/02/29 08:11:06;;;;;;;21.90;14.10;;;12.60;99.20;;;;;;5077862;27;20041;-72
2024/02/29 08:13:33;;;;;;;26.00;15.23;;;12.70;98.80;;;;;;5109090;27;20101;-72
2024/02/29 08:16:01;;;;;;;20.60;14.38;;;12.70;98.60;;;;;;5082407;28;21344;-76
2024/02/29 08:18:28;;;;;;;20.90;13.02;;;12.70;98.60;;;;;;5096993;28;20036;-70
2024/02/29 08:20:55;;;;;;;17.33;12.95;;;12.80;98.60;;;;;;5102354;28;20042;-71
2024/02/29 08:23:23;;;;;;;27.70;14.07;;;13.00;98.20;;;;;;5104970;28;20035;-70
2024/02/29 08:25:51;;;;;;;24.73;16.23;;;13.10;98.20;;;;;;5099214;28;20068;-71
2024/02/29 08:28:18;;;;;;;26.52;15.45;;;13.30;98.20;;;;;;5109241;28;20036;-69
2024/02/29 08:30:46;;;;;;;20.42;14.02;;;13.50;98.00;;;;;;5112483;27;20114;-71
2024/02/29 08:33:13;;;;;;;20.70;13.13;;;13.50;97.90;;;;;;5113703;27;20434;-71
2024/02/29 08:35:41;;;;;;;18.45;11.13;;;13.50;97.70;;;;;;5101693;28;20046;-71
2024/02/29 08:38:09;;;;;;;19.30;9.85;;;13.50;97.50;;;;;;5085546;28;20459;-73
2024/02/29 08:40:36;;;;;;;12.93;9.75;;;13.50;97.20;;;;;;5104584;28;20452;-71
2024/02/29 08:43:04;;;;;;;15.77;9.80;;;13.50;97.10;;;;;;5103516;28;20074;-71
2024/02/29 08:45:31;;;;;;;16.48;9.75;;;13.60;97.00;;;;;;5097371;28;20036;-71
2024/02/29 08:47:59;;;;;;;13.80;8.93;;;13.60;96.70;;;;;;5088426;28;20046;-69
2024/02/29 08:50:26;;;;;;;11.98;8.25;;;13.60;96.90;;;;;;5108050;28;20032;-72
2024/02/29 08:52:55;;;;;;;14.95;8.18;;;13.70;96.70;;;;;;5100788;28;20035;-71
2024/02/29 08:55:23;;;;;;;11.35;7.47;;;13.80;96.60;;;;;;5099429;28;20541;-72
2024/02/29 08:57:50;;;;;;;15.85;7.97;;;13.80;96.30;;;;;;5096789;28;20067;-72
2024/02/29 09:00:18;;;;;;;13.90;8.25;;;13.90;96.10;;;;;;5105734;28;20040;-73
2024/02/29 09:02:45;;;;;;;15.57;8.43;;;14.00;96.10;;;;;;5097994;28;20406;-71
2024/02/29 09:05:12;;;;;;;12.60;7.15;;;14.00;95.90;;;;;;5085134;28;20059;-72
2024/02/29 09:07:40;;;;;;;13.90;6.55;;;14.10;95.30;;;;;;5108497;28;20035;-72
2024/02/29 09:10:09;;;;;;;11.38;6.47;;;14.20;95.10;;;;;;5084825;28;20052;-71
2024/02/29 09:12:36;;;;;;;11.40;6.97;;;14.20;95.00;;;;;;5103031;28;20104;-71
2024/02/29 09:15:04;;;;;;;10.45;6.75;;;14.40;94.80;;;;;;5109686;28;20039;-71
2024/02/29 09:17:31;;;;;;;11.35;7.80;;;14.40;94.70;;;;;;5088894;28;20050;-71
2024/02/29 09:19:59;;;;;;;14.10;7.03;;;14.60;94.50;;;;;;5073872;28;20519;-72
2024/02/29 09:22:26;;;;;;;11.45;7.40;;;14.80;94.40;;;;;;5107971;28;20035;-70
2024/02/29 09:24:55;;;;;;;9.45;6.45;;;14.90;94.20;;;;;;5091854;28;20040;-72
2024/02/29 09:27:23;;;;;;;11.82;6.45;;;14.70;94.10;;;;;;5089064;28;20044;-73
2024/02/29 09:29:51;;;;;;;9.35;6.50;;;14.70;94.30;;;;;;5091357;28;20044;-70
2024/02/29 09:32:18;;;;;;;10.82;6.55;;;14.80;94.10;;;;;;5105021;28;20067;-72
2024/02/29 09:34:46;;;;;;;10.93;6.65;;;14.60;94.30;;;;;;5074824;28;20055;-72
2024/02/29 09:37:19;;;;;;;10.15;7.32;;;14.70;94.20;;;;;;5095590;28;20071;-73
2024/02/29 09:39:47;;;;;;;13.35;6.60;;;14.90;94.10;;;;;;5108074;28;20049;-74
2024/02/29 09:42:15;;;;;;;13.98;6.85;;;14.80;94.10;;;;;;5112189;28;20460;-69
2024/02/29 09:44:43;;;;;;;11.70;6.97;;;14.70;94.20;;;;;;5090505;28;20464;-71
2024/02/29 09:47:12;;;;;;;9.68;6.47;;;14.40;94.20;;;;;;5108748;28;20106;-70
2024/02/29 09:49:40;;;;;;;7.18;5.72;;;14.50;94.30;;;;;;5092866;28;20049;-71
2024/02/29 09:52:12;;;;;;;10.07;6.63;;;14.20;94.50;;;;;;5096829;28;20046;-71
2024/02/29 09:54:40;;;;;;;8.98;5.90;;;14.30;94.40;;;;;;5105021;28;20055;-72
2024/02/29 09:57:13;;;;;;;10.57;6.15;;;14.20;94.40;;;;;;5095108;28;20094;-71
2024/02/29 09:59:45;;;;;;;8.75;6.18;;;14.00;94.60;;;;;;5091139;28;20046;-71
2024/02/29 10:02:15;;;;;;;9.00;6.40;;;14.10;94.60;;;;;;5105758;28;20045;-71
2024/02/29 10:04:44;;;;;;;13.57;7.43;;;14.00;94.80;;;;;;5094864;28;21266;-73
2024/02/29 10:07:11;;;;;;;10.50;7.03;;;14.00;94.80;;;;;;5106188;28;20769;-72
2024/02/29 10:09:39;;;;;;;11.68;6.47;;;13.90;94.90;;;;;;5101429;28;20255;-71
2024/02/29 10:12:07;;;;;;;10.82;7.53;;;14.00;94.80;;;;;;5110607;28;20081;-72
2024/02/29 10:14:36;;;;;;;9.68;6.20;;;14.20;94.70;;;;;;5077262;28;20044;-71
2024/02/29 10:17:04;;;;;;;7.97;6.43;;;14.20;94.60;;;;;;5112961;28;20074;-71
2024/02/29 10:19:33;;;;;;;11.10;6.95;;;14.20;94.70;;;;;;5104572;28;20122;-72
2024/02/29 10:22:02;;;;;;;11.90;7.72;;;14.20;94.50;;;;;;5111324;28;20043;-74
2024/02/29 10:24:30;;;;;;;12.57;7.07;;;14.70;94.20;;;;;;5107771;28;20047;-71
2024/02/29 10:27:04;;;;;;;7.93;6.13;;;14.60;93.80;;;;;;5073734;28;20043;-71
2024/02/29 10:29:32;;;;;;;8.98;6.57;;;14.60;93.80;;;;;;5090993;28;20054;-72
2024/02/29 10:31:59;;;;;;;9.85;5.90;;;14.50;93.70;;;;;;5110732;28;20463;-71
2024/02/29 10:34:27;;;;;;;10.68;6.57;;;14.40;93.80;;;;;;5104767;28;20442;-74
2024/02/29 10:36:56;;;;;;;12.60;6.90;;;14.70;93.70;;;;;;5090802;28;20051;-70
2024/02/29 10:39:23;;;;;;;12.43;6.70;;;14.80;93.30;;;;;;5106252;28;20122;-70
2024/02/29 10:41:54;;;;;;;10.70;6.47;;;15.00;93.10;;;;;;5090235;28;20032;-72
2024/02/29 10:44:29;;;;;;;10.05;6.55;;;15.20;93.00;;;;;;5107267;28;20418;-73
2024/02/29 10:47:03;;;;;;;12.13;6.53;;;15.30;92.70;;;;;;5091128;28;20473;-71
2024/02/29 10:49:35;;;;;;;7.57;6.05;;;15.50;92.50;;;;;;5108898;28;20050;-71
2024/02/29 10:52:11;;;;;;;8.90;6.22;;;15.50;92.30;;;;;;5109228;28;20051;-72
2024/02/29 10:54:42;;;;;;;12.35;6.85;;;15.60;92.50;;;;;;5107854;28;20398;-72
2024/02/29 10:57:14;;;;;;;11.70;6.63;;;15.80;91.80;;;;;;5106127;28;20066;-72
2024/02/29 10:59:51;;;;;;;11.57;6.50;;;15.60;91.80;;;;;;5088234;28;20378;-71
2024/02/29 11:02:19;;;;;;;11.43;6.90;;;15.50;92.20;;;;;;5104644;28;20043;-71
2024/02/29 11:04:47;;;;;;;10.50;7.55;;;15.10;92.60;;;;;;5087769;28;20101;-73
2024/02/29 11:07:15;;;;;;;8.10;6.05;;;15.00;92.50;;;;;;5108314;28;20053;-73
2024/02/29 11:09:43;;;;;;;8.05;5.97;;;14.90;92.80;;;;;;5111035;28;20096;-71
2024/02/29 11:12:15;;;;;;;7.88;6.10;;;14.80;93.00;;;;;;5112036;28;20036;-71
2024/02/29 11:14:44;;;;;;;9.88;6.30;;;14.90;93.00;;;;;;5108926;28;20535;-74
2024/02/29 11:17:15;;;;;;;9.73;6.10;;;15.00;92.80;;;;;;5111687;28;20089;-70
2024/02/29 11:19:44;;;;;;;10.50;6.85;;;15.10;93.00;;;;;;5101835;28;20040;-74
2024/02/29 11:22:34;;;;;;;9.90;6.47;;;15.10;92.70;;;;;;5106574;28;20514;-74
2024/02/29 11:25:11;;;;;;;10.27;6.55;;;15.30;92.50;;;;;;5092763;28;20069;-72
2024/02/29 11:27:46;;;;;;;12.05;7.00;;;15.40;92.30;;;;;;5086112;28;20517;-74
2024/02/29 11:30:18;;;;;;;9.60;6.80;;;15.30;92.30;;;;;;5106574;28;20518;-73
2024/02/29 11:32:46;;;;;;;9.77;6.78;;;15.20;92.70;;;;;;5093769;28;20050;-74
2024/02/29 11:35:16;;;;;;;11.05;6.80;;;15.20;92.90;;;;;;5102910;28;20028;-74
2024/02/29 11:37:44;;;;;;;9.77;7.22;;;15.10;92.80;;;;;;5111497;28;20035;-73
2024/02/29 11:40:18;;;;;;;10.88;7.38;;;15.20;93.00;;;;;;5087123;28;20084;-71
2024/02/29 11:42:45;;;;;;;10.07;7.03;;;15.40;92.40;;;;;;5104350;28;20032;-73
2024/02/29 11:45:23;;;;;;;9.57;6.80;;;15.50;92.20;;;;;;5105884;28;20420;-71
2024/02/29 11:47:50;;;;;;;10.63;7.15;;;15.40;92.40;;;;;;5092968;28;20486;-73
2024/02/29 11:50:18;;;;;;;11.25;6.88;;;15.50;92.40;;;;;;5105330;28;20059;-73
2024/02/29 11:52:45;;;;;;;11.05;6.50;;;15.60;92.30;;;;;;5109872;28;20041;-72
2024/02/29 11:55:30;;;;;;;9.60;6.82;;;15.50;92.20;;;;;;5106577;28;20028;-72
2024/02/29 11:57:59;;;;;;;9.40;6.28;;;15.70;92.10;;;;;;5108521;28;20595;-73
2024/02/29 12:00:28;;;;;;;10.18;6.82;;;15.70;91.90;;;;;;5109027;28;20367;-77
2024/02/29 12:02:55;;;;;;;11.07;6.68;;;15.80;92.00;;;;;;5110316;28;20032;-72
2024/02/29 12:05:23;;;;;;;11.40;6.82;;;16.00;91.70;;;;;;5106130;28;20150;-71
2024/02/29 12:07:51;;;;;;;10.68;7.03;;;16.10;91.50;;;;;;5090875;28;20032;-72
2024/02/29 12:10:18;;;;;;;12.57;7.20;;;15.90;91.90;;;;;;5088606;28;20032;-71
2024/02/29 12:12:46;;;;;;;9.45;6.80;;;15.80;92.00;;;;;;5107763;28;20052;-71
2024/02/29 12:15:13;;;;;;;12.25;7.15;;;15.90;92.10;;;;;;5107309;28;20032;-70
2024/02/29 12:17:41;;;;;;;9.52;6.60;;;15.90;91.70;;;;;;5102891;28;20047;-71
2024/02/29 12:20:10;;;;;;;10.02;6.60;;;16.10;91.80;;;;;;5097974;27;20028;-72
2024/02/29 12:22:37;;;;;;;11.82;7.68;;;16.20;91.40;;;;;;5111324;27;20031;-72
2024/02/29 12:25:15;;;;;;;10.38;6.82;;;16.00;91.40;;;;;;5102101;28;20036;-72
2024/02/29 12:27:42;;;;;;;8.85;6.82;;;15.90;91.60;;;;;;5086651;28;20047;-70
2024/02/29 12:30:12;;;;;;;10.30;6.57;;;16.00;91.60;;;;;;5083006;28;20131;-71
2024/02/29 12:32:41;;;;;;;9.70;7.10;;;16.00;91.50;;;;;;5104400;28;20034;-69
2024/02/29 12:35:09;;;;;;;9.73;6.80;;;16.20;91.40;;;;;;5103759;28;20114;-69